Smoky Lake, Canada
Current Conditions -  °F | °C
As of 4:00 PM on Friday 19 Dec 2014 (Local Time) from CYED Reporting Station
Broken Clouds Broken Clouds  
Wind Chill: 19°   Ceiling: 9000
Heat Index: 19°   Visibility: 5mi
Dew Point: 16°   Wind: 3mph
Humidity: 86%   Direction: 340°NNW
Pressure: 29.66"   Gusts: NA
Location:  54.11°N, 112.47°W
Report Text: CYED 192300Z AUTO 34003KT 5SM BKN090 M07/M09 A2966 RMK SLP090
Loading
Personal Weather Stations






























Interactive Weather Map New forecast layout! Learn more

10-Day Weather Forecast

Advertisements
Track Severe Weather on mobile